KFMN/FMN METAR and TAF weather

Enter ICAO airport designator
Station Type Date Time Source
KFMN METAR 2020/08/07 11:53 UTC NOAA

KFMN 071153Z 05003KT 10SM CLR 14/M05 A3016 RMK AO2 SLP145 T01441050 10228 20139 52013


Station Type Date Time Source
KFMN Decoded METAR 2020/08/07 11:53 UTC NOAA

FARMINGTON FOUR CORNERS, NM, United States (KFMN) 36-45N 108-14W 1685M
Aug 07, 2020 - 07:53 AM EDT / 2020.08.07 1153 UTC
Wind: from the NE (050 degrees) at 3 MPH (3 KT):0
Visibility: 10 mile(s):0
Sky conditions: clear
Temperature: 57.9 F (14.4 C)
Dew Point: 23.0 F (-5.0 C)
Relative Humidity: 25%
Pressure (altimeter): 30.16 in. Hg (1021 hPa)
Pressure tendency: 0.04 inches (1.3 hPa) higher than three hours ago
ob: KFMN 071153Z 05003KT 10SM CLR 14/M05 A3016 RMK AO2 SLP145 T01441050 10228 20139 52013
cycle: 12

Station Type Date Time Source
KFMN TAF 2020/08/07 12:22 UTC NOAA

TAF KFMN 071120Z 0712/0812 VRB05KT P6SM FEW100
FM072100 26010G18KT P6SM SCT120
FM080200 VRB05KT P6SM BKN120

Example: see airport list